Time;durP1;ratioP1;P1;durP2;ratioP2;P2;SDS_P1;SDS_P2;PMS_P1;PMS_P2;Temp;Humidity;BMP_temperature;BMP_pressure;BME280_temperature;BME280_humidity;BME280_pressure;Samples;Min_cycle;Max_cycle;Signal;HPM_P1;HPM_P2
2022/08/15 00:01:18;;;;;;;13.05;8.98;;;;;;;23.57;100.00;95378.22;5080805;28;20083;-60
2022/08/15 00:03:53;;;;;;;9.73;8.35;;;;;;;23.58;100.00;95381.72;5085473;28;20068;-60
2022/08/15 00:06:34;;;;;;;11.45;8.35;;;;;;;23.68;100.00;95369.22;5085840;28;20481;-57
2022/08/15 00:09:17;;;;;;;11.25;9.32;;;;;;;23.83;100.00;95378.50;5082697;28;20545;-60
2022/08/15 00:11:56;;;;;;;;;;;;;;;23.93;100.00;95367.84;5086082;28;20088;-57
2022/08/15 00:14:28;;;;;;;11.18;9.07;;;;;;;23.43;100.00;95369.72;5085161;28;19966;-61
2022/08/15 00:17:01;;;;;;;11.68;10.07;;;;;;;23.89;100.00;95364.03;5083914;28;20086;-61
2022/08/15 00:19:40;;;;;;;11.63;9.27;;;;;;;23.59;100.00;95362.63;5083210;28;20091;-60
2022/08/15 00:22:10;;;;;;;11.02;9.73;;;;;;;23.86;100.00;95362.66;5084399;28;20068;-59
2022/08/15 00:24:48;;;;;;;12.38;9.35;;;;;;;23.65;100.00;95366.19;5085513;28;20083;-57
2022/08/15 00:27:23;;;;;;;11.98;9.05;;;;;;;24.25;100.00;95359.75;5078900;28;21109;-58
2022/08/15 00:29:53;;;;;;;12.52;9.40;;;;;;;24.11;100.00;95363.94;5084771;28;20150;-58
2022/08/15 00:32:24;;;;;;;11.85;9.52;;;;;;;23.90;100.00;95362.94;5079031;28;20092;-59
2022/08/15 00:37:56;;;;;;;11.98;9.20;;;;;;;24.27;100.00;95360.31;5083048;28;19959;-60
2022/08/15 00:43:25;;;;;;;13.02;10.23;;;;;;;24.35;100.00;95362.50;5082646;28;20198;-61
2022/08/15 00:45:58;;;;;;;13.68;9.80;;;;;;;24.29;100.00;95366.22;5080920;28;20075;-59
2022/08/15 00:48:43;;;;;;;12.43;10.18;;;;;;;24.20;100.00;95367.00;5083500;28;20142;-55
2022/08/15 00:51:17;;;;;;;11.00;9.90;;;;;;;24.25;100.00;95370.53;5079975;28;20459;-59
2022/08/15 00:53:48;;;;;;;12.82;10.07;;;;;;;24.12;100.00;95365.56;5084055;28;20084;-62
2022/08/15 00:56:18;;;;;;;12.15;10.10;;;;;;;24.14;100.00;95371.50;5083097;28;20106;-60
2022/08/15 00:58:59;;;;;;;11.43;10.02;;;;;;;24.37;100.00;95371.16;5082677;28;20086;-57
2022/08/15 01:01:34;;;;;;;12.40;10.10;;;;;;;24.06;100.00;95372.00;5081326;28;20080;-60
2022/08/15 01:04:09;;;;;;;11.55;9.60;;;;;;;23.92;100.00;95375.09;5081709;28;20079;-61
2022/08/15 01:06:46;;;;;;;12.27;9.48;;;;;;;24.07;100.00;95376.31;5079476;28;20098;-61
2022/08/15 01:09:24;;;;;;;14.98;9.38;;;;;;;24.16;100.00;95374.78;5082236;28;20471;-61
2022/08/15 01:11:55;;;;;;;10.95;9.18;;;;;;;24.16;100.00;95372.88;5079427;28;20082;-61
2022/08/15 01:14:25;;;;;;;11.40;9.32;;;;;;;24.09;100.00;95372.28;5079447;28;20136;-54
2022/08/15 01:17:15;;;;;;;11.20;9.45;;;;;;;24.22;100.00;95375.59;5082215;28;20157;-60
2022/08/15 01:19:49;;;;;;;12.70;9.50;;;;;;;24.11;100.00;95380.91;5080078;28;20079;-62
2022/08/15 01:22:38;;;;;;;10.60;9.20;;;;;;;24.10;100.00;95378.50;5080631;28;20102;-58
2022/08/15 01:25:12;;;;;;;11.20;9.27;;;;;;;24.09;100.00;95380.38;5080445;28;20083;-56
2022/08/15 01:27:59;;;;;;;11.68;9.40;;;;;;;24.16;100.00;95377.47;5078816;28;20090;-61
2022/08/15 01:30:30;;;;;;;10.57;9.43;;;;;;;23.78;100.00;95373.06;5080204;28;20084;-59
2022/08/15 01:33:20;;;;;;;13.65;9.20;;;;;;;24.02;100.00;95370.84;5081660;28;20076;-60
2022/08/15 01:35:50;;;;;;;13.40;9.65;;;;;;;24.09;100.00;95372.28;5081141;28;20455;-59
2022/08/15 01:38:29;;;;;;;15.88;9.55;;;;;;;24.29;100.00;95371.63;5081239;28;20071;-61
2022/08/15 01:41:24;;;;;;;11.98;9.15;;;;;;;24.23;100.00;95367.28;5079265;28;20072;-60
2022/08/15 01:44:17;;;;;;;11.07;8.77;;;;;;;24.29;100.00;95368.13;5078481;28;20094;-57
2022/08/15 01:47:07;;;;;;;12.43;9.60;;;;;;;24.21;100.00;95369.41;5080581;28;20866;-61
2022/08/15 01:49:49;;;;;;;10.55;9.38;;;;;;;24.25;100.00;95359.75;5079734;28;20103;-60
2022/08/15 01:52:32;;;;;;;12.77;9.02;;;;;;;24.32;100.00;95362.22;5083397;28;20090;-59
2022/08/15 01:55:25;;;;;;;11.43;9.27;;;;;;;24.04;100.00;95361.47;5084267;28;20112;-56
2022/08/15 01:58:04;;;;;;;11.07;9.35;;;;;;;23.82;100.00;95363.44;5079521;28;20304;-58
2022/08/15 02:00:38;;;;;;;10.70;9.60;;;;;;;23.72;100.00;95353.38;5083736;28;20500;-59
2022/08/15 02:03:11;;;;;;;10.40;8.80;;;;;;;23.99;100.00;95357.94;5082572;28;20639;-57
2022/08/15 02:05:51;;;;;;;9.90;8.88;;;;;;;23.98;100.00;95369.75;5079881;28;20090;-60
2022/08/15 02:08:25;;;;;;;11.52;9.55;;;;;;;23.92;100.00;95364.34;5079813;28;20094;-60
2022/08/15 02:11:11;;;;;;;11.30;9.07;;;;;;;23.87;100.00;95371.53;5082558;28;20546;-61
2022/08/15 02:13:50;;;;;;;13.32;10.13;;;;;;;24.00;100.00;95365.75;5080973;28;20083;-59
2022/08/15 02:16:36;;;;;;;11.40;9.85;;;;;;;24.06;100.00;95364.72;5072961;28;20048;-59
2022/08/15 02:19:05;;;;;;;12.13;10.18;;;;;;;23.83;100.00;95365.03;5081496;28;20090;-59
2022/08/15 02:21:41;;;;;;;12.20;10.30;;;;;;;23.91;100.00;95369.94;5081256;28;20068;-58
2022/08/15 02:24:13;;;;;;;11.23;9.65;;;;;;;23.97;100.00;95366.25;5077027;28;20512;-58
2022/08/15 02:26:49;;;;;;;14.32;11.40;;;;;;;24.02;100.00;95368.16;5078995;28;20091;-60
2022/08/15 02:29:21;;;;;;;12.18;10.55;;;;;;;24.11;100.00;95372.03;5082508;28;20078;-60
2022/08/15 02:31:53;;;;;;;12.57;10.98;;;;;;;23.28;100.00;95372.22;5080871;28;20079;-55
2022/08/15 02:34:25;;;;;;;11.98;10.70;;;;;;;23.85;100.00;95361.03;5078666;28;20534;-61
2022/08/15 02:37:18;;;;;;;13.00;11.18;;;;;;;23.48;100.00;95374.34;5081064;28;20083;-59
2022/08/15 02:39:52;;;;;;;14.98;11.50;;;;;;;23.85;100.00;95371.00;5079108;28;20118;-61
2022/08/15 02:42:41;;;;;;;13.45;10.82;;;;;;;23.66;100.00;95373.19;5077845;28;20044;-61
2022/08/15 02:45:16;;;;;;;15.02;11.20;;;;;;;23.37;100.00;95375.31;5079867;28;20528;-59
2022/08/15 02:47:45;;;;;;;12.20;10.90;;;;;;;23.53;100.00;95384.34;5081014;28;20083;-60
2022/08/15 02:50:15;;;;;;;11.77;10.20;;;;;;;23.50;100.00;95380.28;5081869;28;20082;-50
2022/08/15 02:52:45;;;;;;;;;;;;;;;23.95;100.00;95373.78;5080980;28;20153;-61
2022/08/15 02:55:14;;;;;;;11.93;9.80;;;;;;;23.64;100.00;95378.84;5077350;28;20430;-55
2022/08/15 02:57:42;;;;;;;11.45;9.73;;;;;;;23.91;100.00;95380.72;5080409;28;20079;-57
2022/08/15 03:00:31;;;;;;;10.63;9.52;;;;;;;24.09;100.00;95374.97;5080341;28;20530;-55
2022/08/15 03:03:02;;;;;;;12.48;9.00;;;;;;;24.09;100.00;95371.47;5081340;28;20072;-58
2022/08/15 03:05:32;;;;;;;9.57;8.23;;;;;;;24.00;100.00;95373.00;5078592;28;20076;-60
2022/08/15 03:08:01;;;;;;;9.10;7.73;;;;;;;24.04;100.00;95379.50;5080469;28;20079;-58
2022/08/15 03:10:29;;;;;;;8.45;6.55;;;;;;;24.17;100.00;95369.13;5082055;28;20079;-59
2022/08/15 03:13:10;;;;;;;8.95;7.20;;;;;;;23.98;100.00;95380.53;5079919;28;20470;-60
2022/08/15 03:15:44;;;;;;;7.15;6.00;;;;;;;23.97;100.00;95373.50;5080534;28;20711;-60
2022/08/15 03:18:27;;;;;;;7.80;5.95;;;;;;;24.17;100.00;95377.19;5078969;28;20160;-61
2022/08/15 03:20:59;;;;;;;7.55;5.75;;;;;;;24.01;100.00;95375.44;5078138;28;20594;-55
2022/08/15 03:23:32;;;;;;;8.05;5.55;;;;;;;23.86;100.00;95375.31;5080157;28;20080;-58
2022/08/15 03:26:12;;;;;;;7.57;5.38;;;;;;;24.04;100.00;95379.50;5083992;28;20075;-58
2022/08/15 03:29:01;;;;;;;9.55;5.72;;;;;;;23.77;100.00;95385.72;5082607;28;20094;-56
2022/08/15 03:31:37;;;;;;;5.50;4.90;;;;;;;23.56;100.00;95386.53;5076059;28;20040;-60
2022/08/15 03:34:13;;;;;;;5.78;5.15;;;;;;;23.88;100.00;95384.75;5075994;28;20080;-61
2022/08/15 03:36:45;;;;;;;8.57;5.60;;;;;;;24.10;100.00;95382.00;5079546;28;20079;-60
2022/08/15 03:39:20;;;;;;;7.72;5.20;;;;;;;23.80;100.00;95379.00;5077942;28;20633;-60
2022/08/15 03:41:51;;;;;;;6.47;5.00;;;;;;;23.88;100.00;95386.63;5083363;28;20080;-60
2022/08/15 03:44:24;;;;;;;7.10;5.10;;;;;;;24.22;100.00;95387.19;5082227;28;20082;-53
2022/08/15 03:46:57;;;;;;;7.38;4.90;;;;;;;23.93;100.00;95389.38;5082512;28;20775;-57
2022/08/15 03:49:25;;;;;;;6.20;4.88;;;;;;;24.37;100.00;95392.72;5079254;28;20088;-60
2022/08/15 03:52:14;;;;;;;6.43;4.82;;;;;;;24.57;100.00;95397.50;5080741;28;20545;-61
2022/08/15 03:55:01;;;;;;;5.72;4.72;;;;;;;24.42;100.00;95401.94;5086235;28;20084;-56
2022/08/15 03:57:30;;;;;;;9.43;4.80;;;;;;;24.89;100.00;95402.00;5082692;28;20076;-55
2022/08/15 04:00:22;;;;;;;6.65;4.68;;;;;;;24.80;100.00;95403.56;5081633;28;20553;-61
2022/08/15 04:03:04;;;;;;;5.55;4.30;;;;;;;24.72;100.00;95396.78;5081210;28;20083;-58
2022/08/15 04:05:34;;;;;;;5.95;4.28;;;;;;;24.05;100.00;95398.09;5081451;28;22377;-60
2022/08/15 04:08:10;;;;;;;8.02;4.65;;;;;;;24.41;100.00;95401.13;5084202;28;20534;-59
2022/08/15 04:11:01;;;;;;;6.47;4.30;;;;;;;24.17;100.00;95400.63;5083350;28;20088;-59
2022/08/15 04:13:30;;;;;;;6.43;4.22;;;;;;;24.55;100.00;95406.91;5082569;28;20076;-60
2022/08/15 04:16:01;;;;;;;6.53;4.03;;;;;;;24.36;100.00;95409.13;5085154;28;20448;-59
2022/08/15 04:18:51;;;;;;;7.55;4.13;;;;;;;24.48;100.00;95411.69;5079026;28;22142;-58
2022/08/15 04:21:26;;;;;;;5.88;4.30;;;;;;;24.85;100.00;95409.00;5075092;28;20087;-56
2022/08/15 04:23:55;;;;;;;6.25;4.03;;;;;;;24.82;100.00;95413.00;5084435;28;20680;-59
2022/08/15 04:26:25;;;;;;;6.55;4.07;;;;;;;24.68;100.00;95427.22;5083687;28;20088;-60
2022/08/15 04:28:55;;;;;;;4.70;3.90;;;;;;;24.91;100.00;95426.81;5082807;28;20487;-61
2022/08/15 04:31:25;;;;;;;4.22;3.53;;;;;;;24.41;100.00;95424.59;5081141;28;20087;-60
2022/08/15 04:34:03;;;;;;;5.78;3.70;;;;;;;24.36;100.00;95439.63;5082028;28;20048;-58
2022/08/15 04:36:51;;;;;;;5.68;3.80;;;;;;;24.37;100.00;95432.34;5083708;28;20087;-59
2022/08/15 04:39:25;;;;;;;9.35;3.80;;;;;;;24.42;100.00;95432.41;5081110;28;20091;-54
2022/08/15 04:42:00;;;;;;;4.90;3.88;;;;;;;24.87;100.00;95439.19;5081809;28;20071;-59
2022/08/15 04:44:31;;;;;;;6.72;3.65;;;;;;;24.80;100.00;95435.91;5079228;28;20083;-61
2022/08/15 04:46:59;;;;;;;4.32;3.53;;;;;;;24.34;100.00;95443.63;5081480;28;20076;-56
2022/08/15 04:49:29;;;;;;;5.60;3.33;;;;;;;24.91;100.00;95437.59;5075567;28;20517;-62
2022/08/15 04:52:07;;;;;;;4.97;3.17;;;;;;;24.33;100.00;95440.13;5082427;28;20079;-59
2022/08/15 04:54:35;;;;;;;5.93;3.45;;;;;;;24.37;100.00;95443.13;5080584;28;20530;-61
2022/08/15 04:57:04;;;;;;;6.20;3.67;;;;;;;24.60;100.00;95436.56;5079451;28;20086;-59
2022/08/15 04:59:33;;;;;;;4.95;3.22;;;;;;;24.56;100.00;95430.06;5082346;28;20148;-60
2022/08/15 05:02:06;;;;;;;5.25;3.47;;;;;;;24.57;100.00;95439.78;5079646;28;20091;-62
2022/08/15 05:04:56;;;;;;;6.13;3.37;;;;;;;25.17;100.00;95438.59;5083379;28;20076;-59
2022/08/15 05:07:25;;;;;;;3.78;3.25;;;;;;;24.71;100.00;95441.00;5082176;28;20087;-60
2022/08/15 05:09:55;;;;;;;5.38;3.42;;;;;;;24.74;100.00;95440.47;5079757;28;20460;-61
2022/08/15 05:12:28;;;;;;;5.07;3.10;;;;;;;24.54;100.00;95445.72;5080030;28;20095;-58
2022/08/15 05:15:01;;;;;;;9.05;3.50;;;;;;;25.04;100.00;95445.22;5081150;28;20076;-60
2022/08/15 05:17:31;;;;;;;5.05;3.60;;;;;;;24.78;100.00;95441.56;5081519;28;20079;-61
2022/08/15 05:20:22;;;;;;;6.53;3.10;;;;;;;24.96;100.00;95439.53;5078252;28;20044;-58
2022/08/15 05:22:55;;;;;;;6.85;3.40;;;;;;;24.70;100.00;95438.53;5081455;28;20076;-61
2022/08/15 05:25:28;;;;;;;5.88;3.40;;;;;;;24.99;100.00;95445.22;5080685;28;20181;-62
2022/08/15 05:27:56;;;;;;;6.93;3.55;;;;;;;25.07;100.00;95441.22;5079347;28;20675;-61
2022/08/15 05:30:25;;;;;;;6.03;3.35;;;;;;;25.23;100.00;95448.34;5080096;28;20099;-59
2022/08/15 05:33:02;;;;;;;5.78;3.15;;;;;;;24.67;100.00;95447.94;5077825;28;20518;-61
2022/08/15 05:35:32;;;;;;;5.22;3.33;;;;;;;25.13;100.00;95453.69;5076131;28;20075;-61
2022/08/15 05:38:04;;;;;;;6.53;3.35;;;;;;;24.98;100.00;95450.84;5082729;28;20083;-61
2022/08/15 05:41:08;;;;;;;5.03;3.08;;;;;;;25.27;100.00;95456.75;5080110;28;20090;-61
2022/08/15 05:43:40;;;;;;;5.13;3.30;;;;;;;25.31;100.00;95453.25;5081647;28;20063;-56
2022/08/15 05:46:26;;;;;;;7.50;3.33;;;;;;;25.34;100.00;95454.63;5079640;28;20485;-60
2022/08/15 05:49:01;;;;;;;5.45;3.38;;;;;;;25.19;100.00;95458.06;5078486;28;20063;-60
2022/08/15 05:51:35;;;;;;;4.53;3.35;;;;;;;25.15;100.00;95459.63;5080243;28;20463;-60
2022/08/15 05:54:27;;;;;;;5.85;3.38;;;;;;;25.25;100.00;95456.97;5080098;28;20063;-59
2022/08/15 05:57:05;;;;;;;4.70;3.00;;;;;;;25.06;100.00;95463.88;5077166;28;20076;-61
2022/08/15 05:59:40;;;;;;;7.53;3.33;;;;;;;25.05;100.00;95460.38;5080205;28;20514;-58
2022/08/15 06:02:20;;;;;;;5.78;3.17;;;;;;;25.41;100.00;95465.97;5080198;28;20581;-61
2022/08/15 06:05:14;;;;;;;4.75;2.97;;;;;;;24.77;100.00;95479.56;5078495;28;20068;-61
2022/08/15 06:07:48;;;;;;;4.63;3.30;;;;;;;25.40;100.00;95474.34;5079499;28;20049;-60
2022/08/15 06:10:26;;;;;;;5.40;3.33;;;;;;;25.09;100.00;95466.06;5076405;28;20071;-61
2022/08/15 06:13:09;;;;;;;4.82;3.15;;;;;;;25.20;100.00;95475.06;5081201;28;20494;-60
2022/08/15 06:15:47;;;;;;;4.18;3.25;;;;;;;25.40;100.00;95479.75;5079242;28;20067;-59
2022/08/15 06:18:23;;;;;;;4.85;3.28;;;;;;;24.99;100.00;95482.97;5081156;28;20106;-61
2022/08/15 06:21:00;;;;;;;4.75;3.03;;;;;;;25.61;100.00;95480.66;5079142;28;20376;-61
2022/08/15 06:23:41;;;;;;;3.85;2.72;;;;;;;25.58;100.00;95482.00;5080304;28;20480;-59
2022/08/15 06:26:18;;;;;;;5.30;3.10;;;;;;;25.77;100.00;95482.31;5081267;28;20079;-59
2022/08/15 06:29:10;;;;;;;4.25;3.03;;;;;;;25.80;100.00;95474.53;5077261;28;20467;-60
2022/08/15 06:31:43;;;;;;;5.43;3.05;;;;;;;25.98;100.00;95480.53;5078560;28;20063;-60
2022/08/15 06:34:24;;;;;;;3.05;2.70;;;;;;;25.37;100.00;95477.56;5079532;28;20156;-60
2022/08/15 06:37:21;;;;;;;4.50;3.10;;;;;;;25.91;100.00;95488.06;5081004;28;20076;-61
2022/08/15 06:40:06;;;;;;;3.50;2.60;;;;;;;25.21;100.00;95482.88;5080381;28;20525;-61
2022/08/15 06:42:37;;;;;;;4.55;2.58;;;;;;;25.91;100.00;95485.38;5077044;28;20713;-61
2022/08/15 06:45:10;;;;;;;5.13;2.75;;;;;;;26.45;100.00;95493.88;5080680;28;22072;-61
2022/08/15 06:47:42;;;;;;;5.40;3.00;;;;;;;26.04;100.00;95501.91;5079209;28;20132;-60
2022/08/15 06:50:15;;;;;;;3.42;2.83;;;;;;;26.36;100.00;95494.66;5082253;28;20082;-60
2022/08/15 06:52:50;;;;;;;3.85;2.92;;;;;;;26.09;100.00;95498.41;5080882;28;20420;-61
2022/08/15 06:55:38;;;;;;;6.63;2.70;;;;;;;25.57;100.00;95491.97;5081765;28;20082;-58
2022/08/15 06:58:11;;;;;;;3.90;2.90;;;;;;;26.04;100.00;95501.91;5082621;28;20068;-62
2022/08/15 07:01:04;;;;;;;4.43;2.88;;;;;;;26.50;100.00;95498.53;5082630;28;20458;-59
2022/08/15 07:03:43;;;;;;;4.57;3.10;;;;;;;25.90;100.00;95494.56;5080894;28;20064;-62
2022/08/15 07:06:15;;;;;;;4.20;2.65;;;;;;;25.73;100.00;95506.34;5075424;28;20072;-60
2022/08/15 07:08:51;;;;;;;3.63;2.90;;;;;;;25.43;100.00;95501.63;5080600;28;20079;-61
2022/08/15 07:11:27;;;;;;;5.35;3.22;;;;;;;25.33;100.00;95505.09;5080847;28;20509;-61
2022/08/15 07:14:11;;;;;;;4.18;2.78;;;;;;;25.46;100.00;95509.19;5083647;28;20076;-59
2022/08/15 07:16:56;;;;;;;5.05;2.60;;;;;;;25.66;100.00;95513.06;5079584;28;20083;-59
2022/08/15 07:19:26;;;;;;;4.95;2.90;;;;;;;26.87;100.00;95506.38;5085783;28;20064;-60
2022/08/15 07:22:02;;;;;;;10.07;3.00;;;;;;;27.08;100.00;95507.19;5084896;28;20080;-60
2022/08/15 07:24:35;;;;;;;3.85;2.65;;;;;;;26.41;100.00;95502.81;5083649;28;20060;-58
2022/08/15 07:27:13;;;;;;;3.47;2.60;;;;;;;26.88;100.00;95508.00;5080523;28;20540;-61
2022/08/15 07:29:45;;;;;;;4.32;2.75;;;;;;;26.79;100.00;95503.41;5087767;28;20777;-61
2022/08/15 07:32:27;;;;;;;4.35;2.40;;;;;;;26.18;100.00;95502.19;5087128;28;20080;-58
2022/08/15 07:35:07;;;;;;;2.58;2.38;;;;;;;26.75;100.00;95506.66;5080433;28;20525;-55
2022/08/15 07:37:41;;;;;;;3.78;2.90;;;;;;;27.51;100.00;95506.84;5084057;28;20074;-59
2022/08/15 07:40:19;;;;;;;3.63;2.75;;;;;;;26.46;100.00;95506.34;5087755;28;20501;-60
2022/08/15 07:43:01;;;;;;;3.83;2.60;;;;;;;27.03;100.00;95515.28;5085699;28;20079;-62
2022/08/15 07:45:34;;;;;;;4.20;2.63;;;;;;;27.24;100.00;95515.31;5084646;28;20502;-61
2022/08/15 07:48:06;;;;;;;4.75;2.58;;;;;;;28.01;100.00;95508.59;5087435;28;20075;-59
2022/08/15 07:50:41;;;;;;;3.75;2.55;;;;;;;27.67;100.00;95511.94;5088313;28;20078;-60
2022/08/15 07:53:16;;;;;;;4.70;2.63;;;;;;;28.07;100.00;95509.38;5081270;28;20079;-60
2022/08/15 07:56:06;;;;;;;3.65;2.17;;;;;;;27.96;96.30;95514.03;5086662;28;20095;-59
2022/08/15 07:59:09;;;;;;;4.78;2.75;;;;;;;28.24;98.12;95509.81;5087197;28;20086;-58
2022/08/15 08:01:38;;;;;;;4.03;2.30;;;;;;;28.07;97.48;95518.31;5086633;28;20075;-60
2022/08/15 08:04:09;;;;;;;;;;;;;;;27.64;100.00;95511.69;5085794;28;20060;-60
2022/08/15 08:06:55;;;;;;;3.60;2.53;;;;;;;28.33;90.96;95510.88;5085662;28;19962;-61
2022/08/15 08:09:29;;;;;;;3.63;2.53;;;;;;;28.58;85.35;95509.09;5086201;28;20082;-62
2022/08/15 08:12:07;;;;;;;3.15;2.28;;;;;;;28.25;91.47;95505.22;5078191;28;20066;-63
2022/08/15 08:14:45;;;;;;;3.00;2.30;;;;;;;28.16;88.79;95510.41;5082949;28;20067;-60
2022/08/15 08:17:22;;;;;;;4.53;2.30;;;;;;;27.71;98.38;95514.13;5085359;28;20479;-61
2022/08/15 08:20:04;;;;;;;2.88;2.38;;;;;;;28.15;89.58;95506.09;5083449;28;20872;-61
2022/08/15 08:22:40;;;;;;;3.33;2.42;;;;;;;28.13;91.71;95517.19;5086082;28;20617;-57
2022/08/15 08:25:17;;;;;;;4.05;2.30;;;;;;;28.97;84.38;95514.50;5086865;28;20064;-54
2022/08/15 08:28:14;;;;;;;2.88;2.15;;;;;;;27.41;100.00;95522.03;5085479;28;20079;-57
2022/08/15 08:30:53;;;;;;;2.85;2.38;;;;;;;28.41;86.31;95523.03;5082549;28;20586;-56
2022/08/15 08:33:35;;;;;;;4.03;2.38;;;;;;;28.60;85.38;95515.88;5086926;28;20075;-54
2022/08/15 08:36:11;;;;;;;2.78;2.10;;;;;;;27.73;95.90;95525.47;5078176;28;20410;-60
2022/08/15 08:39:20;;;;;;;3.55;1.90;;;;;;;27.82;85.49;95531.97;5078869;28;20466;-60
2022/08/15 08:41:56;;;;;;;2.65;1.88;;;;;;;28.07;79.81;95531.88;5081184;28;20075;-56
2022/08/15 08:44:31;;;;;;;4.10;2.10;;;;;;;27.83;85.93;95528.19;5087270;28;20086;-54
2022/08/15 08:47:16;;;;;;;4.32;2.35;;;;;;;28.39;81.32;95517.91;5083226;28;20063;-60
2022/08/15 08:49:53;;;;;;;3.22;1.98;;;;;;;28.20;81.57;95526.94;5084497;28;20470;-59
2022/08/15 08:52:45;;;;;;;3.38;2.20;;;;;;;28.32;81.27;95527.41;5085221;28;20044;-59
2022/08/15 08:55:25;;;;;;;2.60;1.80;;;;;;;28.26;80.42;95537.47;5082347;28;20745;-58
2022/08/15 08:58:17;;;;;;;4.88;2.22;;;;;;;29.45;70.01;95527.38;5082494;28;20356;-58
2022/08/15 09:01:06;;;;;;;3.45;2.40;;;;;;;29.61;68.25;95533.50;5082196;28;20629;-56
2022/08/15 09:03:40;;;;;;;2.83;2.08;;;;;;;28.62;75.37;95534.56;5084290;28;20359;-60
2022/08/15 09:06:15;;;;;;;3.42;2.40;;;;;;;28.66;81.68;95537.53;5085171;28;20075;-58
2022/08/15 09:09:02;;;;;;;4.97;2.40;;;;;;;29.65;66.97;95535.34;5082333;28;20074;-59
2022/08/15 09:11:34;;;;;;;4.30;2.20;;;;;;;29.07;74.46;95530.72;5083206;28;20119;-60
2022/08/15 09:14:16;;;;;;;3.40;2.22;;;;;;;29.19;70.09;95527.66;5082699;28;20473;-58
2022/08/15 09:17:08;;;;;;;3.45;2.42;;;;;;;29.90;65.43;95525.28;5078084;28;20064;-55
2022/08/15 09:20:05;;;;;;;4.25;2.17;;;;;;;30.39;62.43;95527.69;5080066;28;20059;-58
2022/08/15 09:22:40;;;;;;;4.68;2.70;;;;;;;29.60;59.54;95526.47;5082977;28;20079;-58
2022/08/15 09:25:09;;;;;;;2.70;2.03;;;;;;;30.03;62.14;95532.75;5083678;28;20072;-54
2022/08/15 09:27:46;;;;;;;3.90;2.33;;;;;;;30.49;57.36;95527.53;5085485;28;20606;-58
2022/08/15 09:30:24;;;;;;;4.00;2.45;;;;;;;30.40;57.54;95523.84;5083350;28;20068;-60
2022/08/15 09:33:28;;;;;;;4.27;2.17;;;;;;;30.48;58.22;95533.25;5081005;28;20079;-57
2022/08/15 09:36:14;;;;;;;2.90;1.88;;;;;;;31.24;54.89;95525.84;5082208;28;20508;-60
2022/08/15 09:39:06;;;;;;;3.50;2.20;;;;;;;29.69;62.99;95528.25;5086423;28;20078;-58
2022/08/15 09:41:51;;;;;;;3.10;2.40;;;;;;;31.09;56.24;95524.19;5084380;28;20456;-58
2022/08/15 09:44:49;;;;;;;5.25;2.58;;;;;;;31.24;53.54;95525.84;5083843;28;20086;-60
2022/08/15 09:47:46;;;;;;;4.35;2.25;;;;;;;29.96;60.99;95521.41;5081768;28;20798;-57
2022/08/15 09:50:44;;;;;;;4.05;2.40;;;;;;;31.62;52.55;95523.81;5081877;28;20435;-62
2022/08/15 09:53:28;;;;;;;3.58;2.55;;;;;;;30.39;56.29;95508.66;5077722;28;20170;-57
2022/08/15 09:56:19;;;;;;;3.90;2.00;;;;;;;30.15;49.29;95522.28;5080948;28;20079;-60
2022/08/15 09:59:04;;;;;;;5.90;2.42;;;;;;;30.75;46.81;95518.97;5078480;28;20068;-58
2022/08/15 10:01:43;;;;;;;9.70;2.33;;;;;;;30.87;47.19;95521.31;5081031;28;20083;-56
2022/08/15 10:04:41;;;;;;;2.58;2.25;;;;;;;31.28;45.49;95526.88;5079946;28;20078;-59
2022/08/15 10:07:33;;;;;;;2.58;2.17;;;;;;;31.38;45.12;95528.63;5078523;28;20082;-60
2022/08/15 10:10:20;;;;;;;3.10;1.88;;;;;;;31.00;47.24;95527.88;5084130;28;20079;-58
2022/08/15 10:13:25;;;;;;;3.78;2.03;;;;;;;30.49;48.57;95521.31;5082673;28;20083;-58
2022/08/15 10:15:58;;;;;;;4.20;2.28;;;;;;;31.19;48.09;95520.47;5080886;28;20076;-55
2022/08/15 10:18:45;;;;;;;;;;;;;;;31.11;48.36;95519.25;5086926;28;20193;-60
2022/08/15 10:21:20;;;;;;;4.20;2.30;;;;;;;30.79;48.47;95513.78;5077931;28;19959;-55
2022/08/15 10:23:50;;;;;;;3.05;2.20;;;;;;;32.01;45.33;95513.56;5083777;28;20461;-59
2022/08/15 10:26:30;;;;;;;3.90;2.00;;;;;;;31.76;46.10;95521.09;5076974;28;20075;-55
2022/08/15 10:29:27;;;;;;;3.20;2.10;;;;;;;31.48;46.21;95514.81;5080149;28;20840;-58
2022/08/15 10:32:02;;;;;;;6.18;2.42;;;;;;;32.20;43.67;95522.41;5083568;28;20075;-57
2022/08/15 10:34:56;;;;;;;3.45;2.03;;;;;;;31.69;42.60;95520.69;5078929;28;20052;-58
2022/08/15 10:37:29;;;;;;;2.90;2.20;;;;;;;31.07;44.40;95518.22;5083469;28;20513;-58
2022/08/15 10:40:18;;;;;;;3.53;2.40;;;;;;;31.78;43.78;95518.06;5072893;28;20082;-54
2022/08/15 10:43:07;;;;;;;2.67;2.05;;;;;;;32.82;41.02;95503.56;5079005;28;20138;-59
2022/08/15 10:45:41;;;;;;;3.33;2.10;;;;;;;32.46;41.84;95511.78;5081584;28;20439;-60
2022/08/15 10:48:25;;;;;;;2.65;2.13;;;;;;;33.13;40.28;95502.84;5072635;28;20086;-58
2022/08/15 10:51:21;;;;;;;2.90;1.98;;;;;;;32.99;40.16;95507.56;5072921;28;20489;-60
2022/08/15 10:54:01;;;;;;;3.78;2.55;;;;;;;33.39;39.75;95507.66;5074902;28;20067;-60
2022/08/15 10:56:33;;;;;;;2.50;2.15;;;;;;;33.51;40.11;95502.44;5072256;28;20077;-54
2022/08/15 10:59:26;;;;;;;5.10;2.45;;;;;;;34.24;38.55;95494.63;5075709;28;20095;-59
2022/08/15 11:02:05;;;;;;;3.88;2.35;;;;;;;35.03;37.45;95487.28;5075002;28;20536;-60
2022/08/15 11:04:45;;;;;;;2.33;1.98;;;;;;;35.77;36.49;95489.69;5081478;28;20119;-60
2022/08/15 11:07:33;;;;;;;2.45;2.10;;;;;;;34.13;38.19;95487.88;5081955;28;20064;-58
2022/08/15 11:10:09;;;;;;;3.55;2.17;;;;;;;35.31;36.31;95480.31;5080599;28;20754;-58
2022/08/15 11:12:51;;;;;;;2.45;2.05;;;;;;;34.30;37.15;95484.34;5077036;28;20064;-55
2022/08/15 11:15:27;;;;;;;3.10;2.10;;;;;;;35.38;34.95;95474.34;5081175;28;20078;-58
2022/08/15 11:18:04;;;;;;;2.70;2.15;;;;;;;34.66;36.36;95484.09;5078859;28;20072;-59
2022/08/15 11:20:52;;;;;;;3.05;1.98;;;;;;;34.36;36.96;95483.06;5080841;28;20080;-60
2022/08/15 11:23:37;;;;;;;4.28;2.20;;;;;;;34.08;36.80;95480.63;5081412;28;20090;-54
2022/08/15 11:26:08;;;;;;;3.13;2.20;;;;;;;35.01;35.62;95478.59;5086337;28;20059;-56
2022/08/15 11:29:14;;;;;;;2.70;1.95;;;;;;;35.23;35.04;95472.91;5080930;28;20083;-55
2022/08/15 11:31:47;;;;;;;3.35;1.75;;;;;;;35.80;34.33;95469.03;5078118;28;20102;-57
2022/08/15 11:34:28;;;;;;;3.17;2.05;;;;;;;35.15;34.81;95463.56;5087105;28;20494;-56
2022/08/15 11:37:15;;;;;;;3.78;2.08;;;;;;;34.98;35.11;95474.53;5079350;28;20083;-57
2022/08/15 11:39:48;;;;;;;2.15;1.90;;;;;;;33.30;37.68;95470.13;5082819;28;20178;-56
2022/08/15 11:42:18;;;;;;;2.45;1.58;;;;;;;33.57;38.29;95483.97;5080885;28;20072;-57
2022/08/15 11:44:52;;;;;;;2.28;1.80;;;;;;;33.33;37.62;95474.19;5087028;28;20079;-58
2022/08/15 11:47:22;;;;;;;3.22;1.77;;;;;;;33.51;37.92;95475.88;5084441;28;20079;-57
2022/08/15 11:49:52;;;;;;;3.65;1.98;;;;;;;33.58;36.58;95466.44;5082175;28;20045;-53
2022/08/15 11:52:24;;;;;;;2.00;1.70;;;;;;;33.69;36.86;95465.03;5077716;28;20083;-57
2022/08/15 11:55:16;;;;;;;1.95;1.50;;;;;;;33.01;37.72;95456.16;5082321;28;20090;-59
2022/08/15 11:57:59;;;;;;;2.92;2.20;;;;;;;33.59;37.43;95452.47;5079698;28;20079;-55
2022/08/15 12:00:39;;;;;;;2.88;2.17;;;;;;;32.79;37.97;95455.03;5082950;28;20075;-57
2022/08/15 12:03:19;;;;;;;3.03;1.85;;;;;;;33.07;38.29;95444.81;5081081;28;20080;-63
2022/08/15 12:06:23;;;;;;;5.55;2.10;;;;;;;32.68;39.26;95448.19;5084976;28;20438;-56
2022/08/15 12:09:15;;;;;;;2.53;2.10;;;;;;;32.94;38.56;95448.38;5083704;28;20076;-59
2022/08/15 12:12:04;;;;;;;2.08;1.88;;;;;;;32.78;38.79;95438.97;5084177;28;20086;-55
2022/08/15 12:14:33;;;;;;;2.28;1.90;;;;;;;33.70;37.37;95434.63;5084558;28;20458;-56
2022/08/15 12:17:05;;;;;;;2.50;1.90;;;;;;;33.26;39.24;95435.56;5085100;28;20095;-58
2022/08/15 12:19:47;;;;;;;2.30;2.10;;;;;;;34.36;36.84;95433.81;5078109;28;20508;-56
2022/08/15 12:22:38;;;;;;;2.20;1.90;;;;;;;35.14;34.75;95429.09;5085011;28;20079;-55
2022/08/15 12:25:22;;;;;;;2.92;2.08;;;;;;;33.29;37.50;95424.00;5086327;28;20155;-55
2022/08/15 12:28:11;;;;;;;2.25;1.80;;;;;;;32.50;39.50;95430.09;5078032;28;20068;-61